Terminal Aerodrome Forecast
Issued by NWS

Home | Current Version | Previous Version | Text Only | Print | Product List | Glossary On
Versions: 1 2 3 4 5 6 7 8 9 10 11 12 13 14 15 16 17 18 19 20 21
332
FTUS44 KLIX 251950 AAC
TAFMSY
TAF AMD
KMSY 251950Z 2520/2618 30010KT P6SM -RA SCT050 BKN080
     FM252200 21013KT P6SM SCT040 BKN060
     FM260800 20006KT 5SM BR BKN030
     FM261200 21005KT 3SM BR BKN003
     FM261400 21006KT P6SM BKN020
     FM261600 20006KT P6SM BKN040=

USA.gov is the U.S. government's official web portal to all federal, state and local government web resources and services.